地図

経路データ

SID SEASON NUMBER BASIN SUBBASIN NAME ISO_TIME NATURE LAT LON WMO_WIND WMO_PRES WMO_AGENCY TRACK_TYPE DIST2LAND LANDFALL IFLAG USA_AGENCY USA_ATCF_ID USA_LAT USA_LON USA_RECORD USA_STATUS USA_WIND USA_PRES USA_SSHS USA_R34_NE USA_R34_SE USA_R34_SW USA_R34_NW USA_R50_NE USA_R50_SE USA_R50_SW USA_R50_NW USA_R64_NE USA_R64_SE USA_R64_SW USA_R64_NW USA_POCI USA_ROCI USA_RMW USA_EYE TOKYO_LAT TOKYO_LON TOKYO_GRADE TOKYO_WIND TOKYO_PRES TOKYO_R50_DIR TOKYO_R50_LONG TOKYO_R50_SHORT TOKYO_R30_DIR TOKYO_R30_LONG TOKYO_R30_SHORT TOKYO_LAND CMA_LAT CMA_LON CMA_CAT CMA_WIND CMA_PRES HKO_LAT HKO_LON HKO_CAT HKO_WIND HKO_PRES NEWDELHI_LAT NEWDELHI_LON NEWDELHI_GRADE NEWDELHI_WIND NEWDELHI_PRES NEWDELHI_CI NEWDELHI_DP NEWDELHI_POCI REUNION_LAT REUNION_LON REUNION_TYPE REUNION_WIND REUNION_PRES REUNION_TNUM REUNION_CI REUNION_RMW REUNION_R34_NE REUNION_R34_SE REUNION_R34_SW REUNION_R34_NW REUNION_R50_NE REUNION_R50_SE REUNION_R50_SW REUNION_R50_NW REUNION_R64_NE REUNION_R64_SE REUNION_R64_SW REUNION_R64_NW BOM_LAT BOM_LON BOM_TYPE BOM_WIND BOM_PRES BOM_TNUM BOM_CI BOM_RMW BOM_R34_NE BOM_R34_SE BOM_R34_SW BOM_R34_NW BOM_R50_NE BOM_R50_SE BOM_R50_SW BOM_R50_NW BOM_R64_NE BOM_R64_SE BOM_R64_SW BOM_R64_NW BOM_ROCI BOM_POCI BOM_EYE BOM_POS_METHOD BOM_PRES_METHOD NADI_LAT NADI_LON NADI_CAT NADI_WIND NADI_PRES WELLINGTON_LAT WELLINGTON_LON WELLINGTON_WIND WELLINGTON_PRES DS824_LAT DS824_LON DS824_STAGE DS824_WIND DS824_PRES TD9636_LAT TD9636_LON TD9636_STAGE TD9636_WIND TD9636_PRES TD9635_LAT TD9635_LON TD9635_WIND TD9635_PRES TD9635_ROCI NEUMANN_LAT NEUMANN_LON NEUMANN_CLASS NEUMANN_WIND NEUMANN_PRES MLC_LAT MLC_LON MLC_CLASS MLC_WIND MLC_PRES USA_GUST BOM_GUST BOM_GUST_PER REUNION_GUST REUNION_GUST_PER USA_SEAHGT USA_SEARAD_NE USA_SEARAD_SE USA_SEARAD_SW USA_SEARAD_NW STORM_SPEED STORM_DIR
1993152N22276 1993 31 NA CS NOT_NAMED 1993-05-31 12:00:00 TS 21.5000 -84.0000 25 1003 hurdat_atl main 44 0 O_____________ hurdat_atl AL011993 21.5000 -84.0000 TD 25 1003 -1 21 67
1993152N22276 1993 31 NA CS NOT_NAMED 1993-05-31 15:00:00 TS 21.9013 -82.9812 main 11 10 P_____________ AL011993 21.9013 -82.9812 TD 25 1002 -1 20 67
1993152N22276 1993 31 NA CS NOT_NAMED 1993-05-31 18:00:00 TS 22.3000 -82.0000 25 1002 hurdat_atl main 0 0 O_____________ hurdat_atl AL011993 22.3000 -82.0000 TD 25 1002 -1 19 65
1993152N22276 1993 31 NA NA NOT_NAMED 1993-05-31 21:00:00 TS 22.7121 -81.0967 main 0 0 P_____________ AL011993 22.7121 -81.0967 TD 25 1001 -1 18 60
1993152N22276 1993 31 NA NA NOT_NAMED 1993-06-01 00:00:00 TS 23.2000 -80.3000 25 1000 hurdat_atl main 30 30 O_____________ hurdat_atl AL011993 23.2000 -80.3000 TD 25 1000 -1 18 50
1993152N22276 1993 31 NA NA NOT_NAMED 1993-06-01 03:00:00 TS 23.8491 -79.6347 main 108 51 P_____________ AL011993 23.8491 -79.6347 TD 25 1000 -1 18 42
1993152N22276 1993 31 NA NA NOT_NAMED 1993-06-01 06:00:00 TS 24.5000 -79.0000 25 1000 hurdat_atl main 51 15 O_____________ hurdat_atl AL011993 24.5000 -79.0000 TD 25 1000 -1 17 47
1993152N22276 1993 31 NA NA NOT_NAMED 1993-06-01 09:00:00 TS 24.9946 -78.2793 main 15 0 P_____________ AL011993 24.9946 -78.2793 TD 27 999 -1 16 56
1993152N22276 1993 31 NA NA NOT_NAMED 1993-06-01 12:00:00 TS 25.4000 -77.5000 30 999 hurdat_atl main 60 60 O_____________ hurdat_atl AL011993 25.4000 -77.5000 TD 30 999 -1 16 62
1993152N22276 1993 31 NA NA NOT_NAMED 1993-06-01 15:00:00 TS 25.7721 -76.6719 main 152 152 P_____________ AL011993 25.7721 -76.6719 TD 30 999 -1 17 65
1993152N22276 1993 31 NA NA NOT_NAMED 1993-06-01 18:00:00 TS 26.1000 -75.8000 30 999 hurdat_atl main 247 247 O_____________ hurdat_atl AL011993 26.1000 -75.8000 TD 30 999 -1 17 69
1993152N22276 1993 31 NA NA NOT_NAMED 1993-06-01 21:00:00 TS 26.3690 -74.9356 main 342 342 P_____________ AL011993 26.3690 -74.9356 TD 30 999 -1 17 70
1993152N22276 1993 31 NA NA NOT_NAMED 1993-06-02 00:00:00 TS 26.7000 -74.0000 30 999 hurdat_atl main 437 437 O_____________ hurdat_atl AL011993 26.7000 -74.0000 TD 30 999 -1 20 64
1993152N22276 1993 31 NA NA NOT_NAMED 1993-06-02 03:00:00 TS 27.2503 -72.9092 main 564 564 P_____________ AL011993 27.2503 -72.9092 TD 30 999 -1 22 61
1993152N22276 1993 31 NA NA NOT_NAMED 1993-06-02 06:00:00 TS 27.8000 -71.8000 30 999 hurdat_atl main 686 686 O_____________ hurdat_atl AL011993 27.8000 -71.8000 TD 30 999 -1 21 63
1993152N22276 1993 31 NA NA NOT_NAMED 1993-06-02 09:00:00 TS 28.1735 -70.8417 main 794 794 P_____________ AL011993 28.1735 -70.8417 TD 32 999 -1 18 70
1993152N22276 1993 31 NA NA NOT_NAMED 1993-06-02 12:00:00 ET 28.4000 -69.9000 35 999 hurdat_atl main 863 863 O_____________ hurdat_atl AL011993 28.4000 -69.9000 EX 35 999 -4 17 80
1993152N22276 1993 31 NA NA NOT_NAMED 1993-06-02 15:00:00 ET 28.4713 -68.8933 main 914 914 P_____________ AL011993 28.4713 -68.8933 EX 35 999 -4 18 87
1993152N22276 1993 31 NA NA NOT_NAMED 1993-06-02 18:00:00 ET 28.5000 -67.8000 35 1000 hurdat_atl main 969 969 O_____________ hurdat_atl AL011993 28.5000 -67.8000 EX 35 1000 -4 20 86
1993152N22276 1993 31 NA NA NOT_NAMED 1993-06-02 21:00:00 ET 28.6203 -66.5869 main 1048 1048 P_____________ AL011993 28.6203 -66.5869 EX 35 1000 -4 22 82
1993152N22276 1993 31 NA NA NOT_NAMED 1993-06-03 00:00:00 ET 28.8000 -65.3000 35 1000 hurdat_atl main 1132 O_____________ hurdat_atl AL011993 28.8000 -65.3000 EX 35 1000 -4 23 81

IBTrACS Databaseについて

本データベースは、米国NOAAが公開する1842年以降の世界の熱帯低気圧のベストトラックデータアーカイブInternational Best Track Archive for Climate Stewardship (IBTrACS)を、ウェブで閲覧しやすい形式に変換したものです。

最終更新日:2021-12-01